Buffalo, WY

11:57 AM MST on December 25, 2014 (GMT -0700)
Johnson County | Change Station
CLOSE
Current Station
Airport
Location: Buffalo,
Elevation: 4967 ft
Nearby Weather Stations
Active Advisory: Winter Weather Advisory

Elev 4967 ft 44.38 °N, 106.72 °W | Updated 4 minutes ago

Snow
Snow
23 °F
Feels Like 8 °F
N
20
Wind Variable Wind from North

Today
High -- | Low -- °F
--% Chance of Precip.
Yesterday
High -- | Low -- °F
Precip. -- in
7:41 AM 4:32 PM
Waxing Crescent, 18% visible
Pressure 29.84 in
Visibility 1.5 miles
Clouds Mostly Cloudy 700 ft
Mostly Cloudy 2500 ft
Overcast 4400 ft
Windchill 8 °F
Dew Point 21 °F
Humidity 92%
Rainfall 0.07 in
Snow Depth Not available.
UV 1 out of 12
Pollen .10 out of 12
Air Quality Not available.
Flu Activity Not available.
METAR KBYG 251853Z AUTO 36017KT 1 1/2SM -SN BR BKN007 BKN025 OVC044 M05/M06 A2975 RMK AO2 SLP105 P0000 T10501061

More Conditions Fewer Conditions

Pressure 29.84 in
Visibility 1.5 miles
Clouds Mostly Cloudy 700 ft
Mostly Cloudy 2500 ft
Overcast 4400 ft
Windchill 8 °F
Dew Point 21 °F
Humidity 92%
Rainfall 0.07 in
Snow Depth Not available.
UV 1 out of 12
Pollen .10 out of 12
Air Quality Not available.
Flu Activity Not available.
METAR KBYG 251853Z AUTO 36017KT 1 1/2SM -SN BR BKN007 BKN025 OVC044 M05/M06 A2975 RMK AO2 SLP105 P0000 T10501061

More Conditions Fewer Conditions

10-Day Weather Forecast

Almanac

Astronomy

Dec. 25, 2014 Rise Set
Actual Time
Civil Twilight
Nautical Twilight
Astronomical Twilight
Moon
Length of Visible Light
Length of Day
Tomorrow will be .
, % of the Moon is Illuminated

Today's Extremes

State Highs State Lows

Community

WunderPhotos

Upload Photos

1,780,358 photos uploaded!

WunderBlogs® & News

Nearby

Air Quality

  Air Quality AQ Index Pollutant
Not available.

Snow Depth

Station Depth Elevation

Earthquake Activity

City Distance Mag. Time & Date
Minimum magnitude displayed is 2.5.

Coastal Water Temperatures

Place Temperature

Nearby Weather Stations